This is the latest recevied weather packets stored in our database for station/object CQ0XBF-11. If no packets are shown the sender has not sent any weather packets the latest 1 day(s).
| Time | Temp. | Humidity | Pressure | Rain* | Wind** | Luminosity | Snow |
|---|---|---|---|---|---|---|---|
| 1778068192 | 22.78° C | 35% | - | 0 mm | - | - | - |
| 1778068070 | 22.78° C | 34% | - | 0 mm | - | - | - |
| 1778067949 | 22.78° C | 34% | - | 0 mm | - | - | - |
| 1778067827 | 22.78° C | 36% | - | 0 mm | - | - | - |
| 1778067705 | 22.78° C | 36% | - | 0 mm | - | - | - |
| 1778067584 | 22.22° C | 36% | - | 0 mm | - | - | - |
| 1778067462 | 22.78° C | 34% | - | 0 mm | - | - | - |
| 1778067341 | 22.22° C | 36% | - | 0 mm | - | - | - |
| 1778067219 | 22.78° C | 35% | - | 0 mm | - | - | - |
| 1778067098 | 22.22° C | 35% | - | 0 mm | - | - | - |
| 1778066976 | 22.22° C | 38% | - | 0 mm | - | - | - |
| 1778066855 | 21.67° C | 37% | - | 0 mm | - | - | - |
| 1778066733 | 22.22° C | 36% | - | 0 mm | - | - | - |
| 1778066612 | 22.22° C | 37% | - | 0 mm | - | - | - |
| 1778066401 | 21.67° C | 38% | - | 0 mm | - | - | - |
| 1778066369 | 21.67° C | 38% | - | 0 mm | - | - | - |
| 1778066247 | 21.67° C | 38% | - | 0 mm | - | - | - |
| 1778066004 | 20.56° C | 42% | - | 0 mm | - | - | - |
| 1778063939 | 20.56° C | 42% | - | 0 mm | - | - | - |
| 1778063452 | 20° C | 43% | - | 0 mm | - | - | - |
| 1778063330 | 19.44° C | 46% | - | 0 mm | - | - | - |
| 1778063209 | 19.44° C | 45% | - | 0 mm | - | - | - |
| 1778063087 | 19.44° C | 45% | - | 0 mm | - | - | - |
| 1778062967 | 18.89° C | 46% | - | 0 mm | - | - | - |
| 1778062723 | 18.89° C | 46% | - | 0 mm | - | - | - |
* Rain since midnight (hover to see other rain measurements)
** Current wind speed in m/s (hover to see current wind gust speed)